createdAt,value
2022-11-28T00:01:21.596Z,96987.91
2022-11-28T00:03:48.626Z,96997.53
2022-11-28T00:06:15.850Z,96992.81
2022-11-28T00:08:42.769Z,96993.84
2022-11-28T00:11:12.148Z,96993.28
2022-11-28T00:13:38.807Z,96989.75
2022-11-28T00:16:07.678Z,96982.66
2022-11-28T00:18:34.599Z,96983.81
2022-11-28T00:21:12.854Z,96983.34
2022-11-28T00:23:40.036Z,96981.75
2022-11-28T00:26:09.570Z,96980.25
2022-11-28T00:28:36.579Z,96978.31
2022-11-28T00:31:03.430Z,96970.88
2022-11-28T00:33:31.473Z,96974.50
2022-11-28T00:36:02.927Z,96963.13
2022-11-28T00:38:29.559Z,96969.41
2022-11-28T00:41:08.599Z,96968.06
2022-11-28T00:43:35.398Z,96959.03
2022-11-28T00:46:02.486Z,96970.91
2022-11-28T00:48:29.254Z,96961.19
2022-11-28T00:50:55.890Z,96963.91
2022-11-28T00:53:22.313Z,96967.09
2022-11-28T00:55:48.702Z,96957.06
2022-11-28T00:58:15.081Z,96959.13
2022-11-28T01:00:41.528Z,96955.94
2022-11-28T01:03:07.957Z,96948.63
2022-11-28T01:05:41.111Z,96947.03
2022-11-28T01:08:07.573Z,96951.25
2022-11-28T01:10:34.231Z,96951.50
2022-11-28T01:13:00.616Z,96945.09
2022-11-28T01:15:27.102Z,96949.31
2022-11-28T01:17:53.504Z,96941.69
2022-11-28T01:20:19.879Z,96940.63
2022-11-28T01:22:46.260Z,96940.88
2022-11-28T01:25:12.640Z,96948.41
2022-11-28T01:27:39.002Z,96943.72
2022-11-28T01:30:06.003Z,96937.44
2022-11-28T01:32:32.478Z,96935.53
2022-11-28T01:34:59.007Z,96937.13
2022-11-28T01:37:25.356Z,96936.66
2022-11-28T01:39:51.692Z,96930.38
2022-11-28T01:42:19.773Z,96919.88
2022-11-28T01:44:49.184Z,96920.75
2022-11-28T01:47:20.543Z,96918.81
2022-11-28T01:49:48.955Z,96926.28
2022-11-28T01:52:18.870Z,96918.41
2022-11-28T01:54:50.334Z,96916.22
2022-11-28T01:57:24.066Z,96902.66
2022-11-28T02:00:02.708Z,96896.75
2022-11-28T02:02:34.825Z,96890.88
2022-11-28T02:05:01.707Z,96892.69
2022-11-28T02:07:28.243Z,96892.69
2022-11-28T02:09:55.255Z,96891.88
2022-11-28T02:12:49.916Z,96892.47
2022-11-28T02:15:29.229Z,96886.97
2022-11-28T02:18:18.163Z,96875.06
2022-11-28T02:21:06.109Z,96872.81
2022-11-28T02:23:41.653Z,96866.41
2022-11-28T02:26:48.458Z,96865.63
2022-11-28T02:29:49.334Z,96852.25
2022-11-28T02:32:38.163Z,96845.56
2022-11-28T02:35:26.540Z,96843.94
2022-11-28T02:38:23.046Z,96848.41
2022-11-28T02:40:56.774Z,96842.38
2022-11-28T02:44:01.450Z,96843.16
2022-11-28T02:46:49.955Z,96828.00
2022-11-28T02:49:30.282Z,96827.78
2022-11-28T02:52:24.176Z,96828.34
2022-11-28T02:54:52.138Z,96823.41
2022-11-28T02:57:18.474Z,96822.13
2022-11-28T02:59:48.450Z,96818.16
2022-11-28T03:02:27.556Z,96811.63
2022-11-28T03:04:56.989Z,96810.06
2022-11-28T03:07:38.586Z,96803.44
2022-11-28T03:10:08.034Z,96801.13
2022-11-28T03:12:43.418Z,96797.56
2022-11-28T03:15:12.378Z,96803.06
2022-11-28T03:17:53.780Z,96813.47
2022-11-28T03:20:47.230Z,96816.56
2022-11-28T03:23:31.727Z,96815.78
2022-11-28T03:26:01.713Z,96814.97
2022-11-28T03:28:43.426Z,96819.19
2022-11-28T03:31:18.717Z,96811.06
2022-11-28T03:33:51.266Z,96819.59
2022-11-28T03:36:31.061Z,96826.47
2022-11-28T03:39:26.319Z,96822.13
2022-11-28T03:41:58.812Z,96819.50
2022-11-28T03:44:32.612Z,96822.31
2022-11-28T03:47:02.319Z,96820.75
2022-11-28T03:49:40.863Z,96818.69
2022-11-28T03:52:14.466Z,96814.34
2022-11-28T03:54:55.632Z,96811.25
2022-11-28T03:57:29.039Z,96804.59
2022-11-28T03:59:57.882Z,96803.63
2022-11-28T04:02:39.896Z,96809.38
2022-11-28T04:05:09.197Z,96804.03
2022-11-28T04:07:50.753Z,96813.53
2022-11-28T04:10:21.665Z,96816.06
2022-11-28T04:13:11.573Z,96804.97
2022-11-28T04:15:43.664Z,96803.94
2022-11-28T04:18:29.829Z,96802.56
2022-11-28T04:21:25.797Z,96804.81
2022-11-28T04:23:55.444Z,96808.19
2022-11-28T04:26:33.076Z,96811.16
2022-11-28T04:29:03.412Z,96817.69
2022-11-28T04:31:30.877Z,96811.16
2022-11-28T04:34:02.604Z,96806.16
2022-11-28T04:36:30.536Z,96794.59
2022-11-28T04:38:59.731Z,96789.91
2022-11-28T04:41:38.379Z,96785.06
2022-11-28T04:44:16.792Z,96785.56
2022-11-28T04:46:48.404Z,96785.56
2022-11-28T04:49:14.919Z,96777.94
2022-11-28T04:52:22.580Z,96780.47
2022-11-28T04:55:00.511Z,96774.88
2022-11-28T04:57:34.945Z,96766.41
2022-11-28T05:00:07.538Z,96759.91
2022-11-28T05:02:35.970Z,96754.34
2022-11-28T05:05:08.600Z,96759.59
2022-11-28T05:07:35.018Z,96755.59
2022-11-28T05:10:01.425Z,96759.50
2022-11-28T05:12:27.913Z,96755.19
2022-11-28T05:14:54.270Z,96758.63
2022-11-28T05:17:20.696Z,96756.78
2022-11-28T05:19:47.065Z,96748.22
2022-11-28T05:22:13.544Z,96746.16
2022-11-28T05:24:39.943Z,96738.72
2022-11-28T05:27:07.611Z,96734.69
2022-11-28T05:29:34.536Z,96725.34
2022-11-28T05:32:00.948Z,96721.16
2022-11-28T05:34:27.322Z,96712.50
2022-11-28T05:36:53.682Z,96709.66
2022-11-28T05:39:20.195Z,96703.06
2022-11-28T05:41:46.563Z,96706.22
2022-11-28T05:44:12.899Z,96693.75
2022-11-28T05:46:39.256Z,96700.06
2022-11-28T05:49:05.646Z,96705.19
2022-11-28T05:51:32.050Z,96703.41
2022-11-28T05:53:58.427Z,96699.13
2022-11-28T05:56:24.942Z,96690.75
2022-11-28T05:58:53.903Z,96688.88
2022-11-28T06:01:23.013Z,96687.91
2022-11-28T06:03:49.544Z,96686.06
2022-11-28T06:06:18.753Z,96689.84
2022-11-28T06:08:46.739Z,96682.50
2022-11-28T06:11:14.908Z,96694.22
2022-11-28T06:13:42.857Z,96698.25
2022-11-28T06:16:11.686Z,96696.09
2022-11-28T06:18:39.178Z,96691.97
2022-11-28T06:21:07.471Z,96698.03
2022-11-28T06:23:34.107Z,96695.78
2022-11-28T06:26:27.853Z,96694.03
2022-11-28T06:28:55.502Z,96688.88
2022-11-28T06:31:24.808Z,96691.03
2022-11-28T06:33:51.412Z,96692.53
2022-11-28T06:36:19.139Z,96699.69
2022-11-28T06:38:46.398Z,96700.84
2022-11-28T06:41:16.345Z,96706.41
2022-11-28T06:43:43.118Z,96715.34
2022-11-28T06:46:16.288Z,96717.97
2022-11-28T06:48:43.472Z,96705.78
2022-11-28T06:51:11.187Z,96711.66
2022-11-28T06:53:37.536Z,96700.69
2022-11-28T06:56:09.275Z,96711.84
2022-11-28T06:58:36.317Z,96709.91
2022-11-28T07:01:11.804Z,96711.19
2022-11-28T07:03:39.457Z,96708.50
2022-11-28T07:06:06.804Z,96704.56
2022-11-28T07:08:33.776Z,96706.41
2022-11-28T07:11:15.054Z,96695.91
2022-11-28T07:13:42.611Z,96710.66
2022-11-28T07:16:14.560Z,96711.19
2022-11-28T07:18:40.994Z,96707.16
2022-11-28T07:21:07.384Z,96700.53
2022-11-28T07:23:33.751Z,96709.47
2022-11-28T07:26:02.322Z,96699.13
2022-11-28T07:28:31.125Z,96702.75
2022-11-28T07:31:02.855Z,96702.47
2022-11-28T07:33:29.440Z,96714.81
2022-11-28T07:36:00.780Z,96714.06
2022-11-28T07:38:27.116Z,96706.25
2022-11-28T07:40:53.563Z,96715.19
2022-11-28T07:43:19.968Z,96706.09
2022-11-28T07:45:59.948Z,96714.72
2022-11-28T07:48:27.591Z,96710.97
2022-11-28T07:50:54.005Z,96713.59
2022-11-28T07:53:20.414Z,96716.00
2022-11-28T07:55:46.823Z,96715.50
2022-11-28T07:58:13.187Z,96708.97
2022-11-28T08:00:39.713Z,96720.75
2022-11-28T08:03:06.271Z,96720.31
2022-11-28T08:05:33.509Z,96715.19
2022-11-28T08:08:00.024Z,96714.63
2022-11-28T08:10:26.706Z,96718.88
2022-11-28T08:12:53.147Z,96718.38
2022-11-28T08:15:19.511Z,96723.16
2022-11-28T08:17:45.877Z,96716.31
2022-11-28T08:20:12.502Z,96720.13
2022-11-28T08:22:39.136Z,96712.78
2022-11-28T08:25:05.923Z,96715.75
2022-11-28T08:27:32.830Z,96709.31
2022-11-28T08:29:59.175Z,96700.22
2022-11-28T08:32:25.752Z,96709.69
2022-11-28T08:34:52.126Z,96700.47
2022-11-28T08:37:18.489Z,96712.31
2022-11-28T08:39:45.051Z,96705.47
2022-11-28T08:42:11.626Z,96707.53
2022-11-28T08:44:38.273Z,96712.31
2022-11-28T08:47:04.852Z,96716.00
2022-11-28T08:49:31.251Z,96718.22
2022-11-28T08:51:57.606Z,96715.59
2022-11-28T08:54:24.066Z,96714.94
2022-11-28T08:56:50.590Z,96709.34
2022-11-28T08:59:17.075Z,96710.88
2022-11-28T09:01:43.559Z,96718.84
2022-11-28T09:04:10.034Z,96717.66
2022-11-28T09:06:39.423Z,96717.09
2022-11-28T09:09:06.090Z,96724.72
2022-11-28T09:11:32.740Z,96722.75
2022-11-28T09:14:00.349Z,96723.06
2022-11-28T09:16:26.846Z,96723.94
2022-11-28T09:18:54.965Z,96718.94
2022-11-28T09:21:21.653Z,96722.16
2022-11-28T09:23:48.129Z,96720.78
2022-11-28T09:26:17.392Z,96718.78
2022-11-28T09:28:44.324Z,96719.31
2022-11-28T09:31:12.551Z,96724.06
2022-11-28T09:33:39.406Z,96718.31
2022-11-28T09:36:15.317Z,96717.03
2022-11-28T09:38:41.898Z,96717.31
2022-11-28T09:41:56.180Z,96718.72
2022-11-28T09:44:24.980Z,96718.38
2022-11-28T09:46:55.164Z,96716.03
2022-11-28T09:49:55.130Z,96708.78
2022-11-28T09:52:25.766Z,96709.06
2022-11-28T09:55:01.299Z,96705.66
2022-11-28T09:57:49.177Z,96697.81
2022-11-28T10:00:21.678Z,96704.84
2022-11-28T10:03:16.224Z,96698.97
2022-11-28T10:05:56.481Z,96695.50
2022-11-28T10:08:43.798Z,96695.91
2022-11-28T10:11:32.022Z,96679.09
2022-11-28T10:14:08.663Z,96678.78
2022-11-28T10:16:51.262Z,96664.78
2022-11-28T10:19:52.261Z,96673.28
2022-11-28T10:22:18.473Z,96665.63
2022-11-28T10:24:50.603Z,96670.44
2022-11-28T10:27:20.127Z,96669.31
2022-11-28T10:30:02.752Z,96661.19
2022-11-28T10:32:36.298Z,96651.56
2022-11-28T10:35:25.143Z,96650.28
2022-11-28T10:37:54.496Z,96651.38
2022-11-28T10:41:08.968Z,96645.13
2022-11-28T10:43:40.246Z,96634.16
2022-11-28T10:46:29.983Z,96627.56
2022-11-28T10:49:03.509Z,96624.66
2022-11-28T10:51:48.721Z,96621.00
2022-11-28T10:54:18.088Z,96618.81
2022-11-28T10:57:08.935Z,96603.44
2022-11-28T10:59:50.632Z,96606.78
2022-11-28T11:02:48.359Z,96597.94
2022-11-28T11:05:35.827Z,96591.09
2022-11-28T11:08:17.856Z,96590.59
2022-11-28T11:10:50.979Z,96576.69
2022-11-28T11:13:22.056Z,96577.19
2022-11-28T11:15:56.229Z,96578.56
2022-11-28T11:18:32.250Z,96574.09
2022-11-28T11:21:28.327Z,96568.34
2022-11-28T11:24:27.585Z,96570.72
2022-11-28T11:26:54.495Z,96565.63
2022-11-28T11:29:22.608Z,96557.19
2022-11-28T11:31:53.382Z,96555.63
2022-11-28T11:34:22.620Z,96548.03
2022-11-28T11:36:50.303Z,96555.69
2022-11-28T11:39:22.749Z,96545.75
2022-11-28T11:42:08.983Z,96540.25
2022-11-28T11:44:35.651Z,96537.66
2022-11-28T11:47:10.049Z,96541.84
2022-11-28T11:49:45.924Z,96532.72
2022-11-28T11:52:15.379Z,96529.28
2022-11-28T11:54:57.184Z,96530.28
2022-11-28T11:57:33.688Z,96525.28
2022-11-28T12:00:03.936Z,96524.19
2022-11-28T12:02:57.838Z,96518.69
2022-11-28T12:06:06.130Z,96521.56
2022-11-28T12:08:36.086Z,96518.19
2022-11-28T12:11:17.591Z,96501.31
2022-11-28T12:13:44.248Z,96501.84
2022-11-28T12:16:28.974Z,96496.09
2022-11-28T12:19:14.289Z,96499.13
2022-11-28T12:21:50.731Z,96488.09
2022-11-28T12:24:24.927Z,96488.66
2022-11-28T12:27:01.132Z,96487.63
2022-11-28T12:29:44.214Z,96486.06
2022-11-28T12:32:31.487Z,96482.69
2022-11-28T12:35:41.122Z,96478.22
2022-11-28T12:38:11.681Z,96481.91
2022-11-28T12:40:50.101Z,96479.81
2022-11-28T12:44:10.356Z,96477.69
2022-11-28T12:46:36.721Z,96471.88
2022-11-28T12:49:08.747Z,96471.88
2022-11-28T12:51:56.792Z,96471.91
2022-11-28T12:54:51.306Z,96470.84
2022-11-28T12:57:33.458Z,96473.75
2022-11-28T13:00:23.852Z,96472.41
2022-11-28T13:03:17.641Z,96466.59
2022-11-28T13:05:43.907Z,96463.19
2022-11-28T13:08:13.289Z,96462.94
2022-11-28T13:10:56.594Z,96458.44
2022-11-28T13:13:29.598Z,96456.06
2022-11-28T13:16:44.186Z,96462.13
2022-11-28T13:19:27.398Z,96449.25
2022-11-28T13:22:06.216Z,96448.19
2022-11-28T13:25:01.580Z,96446.31
2022-11-28T13:27:37.345Z,96460.28
2022-11-28T13:30:23.059Z,96453.94
2022-11-28T13:32:57.476Z,96447.59
2022-11-28T13:35:24.951Z,96449.72
2022-11-28T13:38:43.237Z,96450.78
2022-11-28T13:42:09.683Z,96442.06
2022-11-28T13:44:35.314Z,96448.09
2022-11-28T13:47:24.569Z,96442.63
2022-11-28T13:49:51.004Z,96443.34
2022-11-28T13:52:17.295Z,96451.81
2022-11-28T13:54:54.203Z,96449.19
2022-11-28T13:57:22.544Z,96449.69
2022-11-28T13:59:52.916Z,96452.34
2022-11-28T14:02:43.149Z,96452.06
2022-11-28T14:05:33.195Z,96454.97
2022-11-28T14:08:00.731Z,96456.28
2022-11-28T14:10:36.024Z,96454.16
2022-11-28T14:13:23.118Z,96454.94
2022-11-28T14:15:55.509Z,96454.91
2022-11-28T14:19:06.703Z,96448.34
2022-11-28T14:21:36.415Z,96452.84
2022-11-28T14:24:18.933Z,96449.09
2022-11-28T14:26:45.708Z,96450.66
2022-11-28T14:29:32.469Z,96448.56
2022-11-28T14:32:29.755Z,96443.31
2022-11-28T14:34:48.033Z,96443.56
2022-11-28T14:37:21.189Z,96447.00
2022-11-28T14:39:49.303Z,96455.38
2022-11-28T14:42:36.845Z,96458.03
2022-11-28T14:45:22.955Z,96450.91
2022-11-28T14:48:15.828Z,96450.88
2022-11-28T14:50:42.184Z,96447.97
2022-11-28T14:53:46.903Z,96457.50
2022-11-28T14:56:16.040Z,96449.25
2022-11-28T14:58:47.805Z,96456.34
2022-11-28T15:01:22.078Z,96454.25
2022-11-28T15:04:00.045Z,96465.31
2022-11-28T15:06:37.799Z,96456.84
2022-11-28T15:09:35.334Z,96455.00
2022-11-28T15:12:19.391Z,96458.94
2022-11-28T15:14:57.564Z,96453.16
2022-11-28T15:17:31.409Z,96451.56
2022-11-28T15:20:02.324Z,96450.47
2022-11-28T15:22:38.041Z,96449.19
2022-11-28T15:25:04.911Z,96453.34
2022-11-28T15:27:31.272Z,96453.09
2022-11-28T15:30:01.964Z,96452.25
2022-11-28T15:32:31.381Z,96457.53
2022-11-28T15:35:10.834Z,96449.91
2022-11-28T15:37:38.885Z,96452.53
2022-11-28T15:40:06.444Z,96452.03
2022-11-28T15:42:37.716Z,96449.94
2022-11-28T15:45:22.278Z,96452.81
2022-11-28T15:47:50.552Z,96450.94
2022-11-28T15:50:20.276Z,96453.88
2022-11-28T15:53:17.485Z,96458.25
2022-11-28T15:55:44.091Z,96458.53
2022-11-28T15:58:28.543Z,96454.59
2022-11-28T16:01:07.811Z,96449.59
2022-11-28T16:03:47.136Z,96453.28
2022-11-28T16:06:14.039Z,96451.72
2022-11-28T16:08:49.015Z,96453.03
2022-11-28T16:11:19.713Z,96460.44
2022-11-28T16:13:47.203Z,96466.19
2022-11-28T16:16:21.572Z,96457.16
2022-11-28T16:19:28.488Z,96453.84
2022-11-28T16:22:07.977Z,96448.59
2022-11-28T16:24:50.461Z,96452.25
2022-11-28T16:27:45.512Z,96452.25
2022-11-28T16:30:34.593Z,96454.06
2022-11-28T16:33:01.069Z,96451.44
2022-11-28T16:35:29.122Z,96454.59
2022-11-28T16:38:25.326Z,96465.09
2022-11-28T16:40:58.842Z,96452.50
2022-11-28T16:43:34.310Z,96455.91
2022-11-28T16:46:04.069Z,96451.72
2022-11-28T16:48:46.230Z,96446.88
2022-11-28T16:51:12.728Z,96453.16
2022-11-28T16:53:49.912Z,96446.59
2022-11-28T16:56:31.670Z,96447.75
2022-11-28T16:59:02.743Z,96437.66
2022-11-28T17:01:30.526Z,96442.16
2022-11-28T17:03:57.745Z,96443.47
2022-11-28T17:06:34.089Z,96441.41
2022-11-28T17:09:01.660Z,96447.75
2022-11-28T17:11:32.586Z,96440.59
2022-11-28T17:14:02.287Z,96439.81
2022-11-28T17:16:30.331Z,96438.22
2022-11-28T17:18:56.751Z,96434.25
2022-11-28T17:21:48.644Z,96434.53
2022-11-28T17:24:18.839Z,96424.31
2022-11-28T17:26:45.818Z,96426.91
2022-11-28T17:29:14.762Z,96422.97
2022-11-28T17:31:42.660Z,96421.31
2022-11-28T17:34:14.557Z,96415.22
2022-11-28T17:36:41.002Z,96414.63
2022-11-28T17:39:07.424Z,96413.34
2022-11-28T17:41:33.866Z,96409.06
2022-11-28T17:44:00.490Z,96409.88
2022-11-28T17:46:26.940Z,96420.66
2022-11-28T17:48:53.376Z,96412.22
2022-11-28T17:51:20.234Z,96417.69
2022-11-28T17:53:46.735Z,96417.94
2022-11-28T17:56:13.583Z,96411.84
2022-11-28T17:58:40.084Z,96412.38
2022-11-28T18:01:11.857Z,96411.56
2022-11-28T18:03:38.624Z,96417.03
2022-11-28T18:06:05.343Z,96408.66
2022-11-28T18:08:31.934Z,96399.47
2022-11-28T18:11:05.825Z,96399.44
2022-11-28T18:13:33.369Z,96396.81
2022-11-28T18:15:59.917Z,96395.56
2022-11-28T18:18:26.938Z,96392.34
2022-11-28T18:20:53.574Z,96393.09
2022-11-28T18:23:20.331Z,96399.09
2022-11-28T18:25:46.919Z,96396.22
2022-11-28T18:28:18.678Z,96396.25
2022-11-28T18:30:46.833Z,96397.31
2022-11-28T18:33:14.495Z,96398.09
2022-11-28T18:35:41.344Z,96398.78
2022-11-28T18:38:08.706Z,96403.25
2022-11-28T18:40:36.294Z,96399.56
2022-11-28T18:43:03.560Z,96394.63
2022-11-28T18:45:30.010Z,96395.38
2022-11-28T18:48:00.228Z,96390.91
2022-11-28T18:50:27.122Z,96390.94
2022-11-28T18:52:54.287Z,96388.00
2022-11-28T18:55:20.660Z,96381.69
2022-11-28T18:57:47.111Z,96385.41
2022-11-28T19:00:14.095Z,96381.25
2022-11-28T19:02:40.682Z,96384.63
2022-11-28T19:05:07.332Z,96391.97
2022-11-28T19:07:33.776Z,96384.53
2022-11-28T19:10:00.216Z,96382.22
2022-11-28T19:12:26.638Z,96382.94
2022-11-28T19:14:57.307Z,96387.41
2022-11-28T19:17:26.804Z,96387.66
2022-11-28T19:19:53.214Z,96386.09
2022-11-28T19:22:19.687Z,96386.00
2022-11-28T19:24:46.059Z,96393.31
2022-11-28T19:27:14.605Z,96393.25
2022-11-28T19:29:41.457Z,96394.34
2022-11-28T19:32:08.160Z,96385.84
2022-11-28T19:34:34.590Z,96393.72
2022-11-28T19:37:01.034Z,96388.59
2022-11-28T19:39:28.078Z,96388.53
2022-11-28T19:41:55.141Z,96385.63
2022-11-28T19:44:23.819Z,96394.19
2022-11-28T19:46:50.705Z,96392.66
2022-11-28T19:49:23.354Z,96393.72
2022-11-28T19:59:16.854Z,96394.34
2022-11-28T20:02:34.375Z,96385.91
2022-11-28T20:05:15.603Z,96384.81
2022-11-28T20:11:42.424Z,96387.25
2022-11-28T20:18:13.088Z,96388.53
2022-11-28T20:20:42.882Z,96385.16
2022-11-28T20:23:13.992Z,96387.78
2022-11-28T20:29:32.024Z,96397.53
2022-11-28T20:42:15.163Z,96413.00
2022-11-28T20:48:21.032Z,96412.50
2022-11-28T20:50:47.544Z,96413.22
2022-11-28T20:53:14.121Z,96406.81
2022-11-28T20:55:40.747Z,96413.72
2022-11-28T20:58:07.257Z,96412.13
2022-11-28T21:00:42.891Z,96406.16
2022-11-28T21:03:10.041Z,96404.13
2022-11-28T21:05:39.069Z,96406.28
2022-11-28T21:08:05.601Z,96407.13
2022-11-28T21:10:33.555Z,96414.47
2022-11-28T21:13:00.020Z,96414.22
2022-11-28T21:15:26.607Z,96412.28
2022-11-28T21:17:53.081Z,96412.16
2022-11-28T21:20:19.557Z,96412.38
2022-11-28T21:22:45.997Z,96403.53
2022-11-28T21:25:12.428Z,96411.47
2022-11-28T21:27:38.942Z,96414.34
2022-11-28T21:30:07.111Z,96412.44
2022-11-28T21:32:36.135Z,96411.47
2022-11-28T21:35:04.419Z,96405.84
2022-11-28T21:37:31.255Z,96405.84
2022-11-28T21:39:57.797Z,96407.41
2022-11-28T21:42:24.305Z,96408.16
2022-11-28T21:44:50.793Z,96409.03
2022-11-28T21:47:17.319Z,96414.69
2022-11-28T21:49:43.924Z,96415.84
2022-11-28T21:52:11.519Z,96413.47
2022-11-28T21:54:37.989Z,96411.59
2022-11-28T21:57:04.485Z,96412.56
2022-11-28T21:59:31.777Z,96412.06
2022-11-28T22:01:58.380Z,96410.78
2022-11-28T22:04:24.893Z,96402.84
2022-11-28T22:06:51.340Z,96412.31
2022-11-28T22:09:17.798Z,96410.50
2022-11-28T22:11:45.434Z,96416.03
2022-11-28T22:14:12.788Z,96416.25
2022-11-28T22:16:39.233Z,96412.28
2022-11-28T22:19:05.845Z,96413.13
2022-11-28T22:24:19.581Z,96413.84
2022-11-28T22:26:46.108Z,96411.47
2022-11-28T22:29:12.657Z,96417.25
2022-11-28T22:31:39.149Z,96419.72
2022-11-28T22:34:05.765Z,96416.78
2022-11-28T22:36:33.454Z,96429.38
2022-11-28T22:38:59.993Z,96425.69
2022-11-28T22:41:29.412Z,96420.16
2022-11-28T22:43:57.759Z,96422.22
2022-11-28T22:46:24.401Z,96413.28
2022-11-28T22:48:51.866Z,96421.00
2022-11-28T22:51:25.572Z,96422.41
2022-11-28T22:53:53.772Z,96418.44
2022-11-28T22:56:20.231Z,96424.97
2022-11-28T22:58:46.856Z,96420.22
2022-11-28T23:01:17.364Z,96428.31
2022-11-28T23:03:44.722Z,96425.69
2022-11-28T23:06:16.459Z,96421.78
2022-11-28T23:08:43.599Z,96426.53
2022-11-28T23:11:13.059Z,96425.19
2022-11-28T23:13:40.204Z,96427.81
2022-11-28T23:16:18.595Z,96425.97
2022-11-28T23:18:46.666Z,96427.81
2022-11-28T23:21:13.898Z,96418.38
2022-11-28T23:23:40.481Z,96417.81
2022-11-28T23:26:11.037Z,96422.63
2022-11-28T23:28:38.579Z,96422.88
2022-11-28T23:31:10.722Z,96417.31
2022-11-28T23:33:38.241Z,96421.28
2022-11-28T23:36:22.620Z,96415.78
2022-11-28T23:38:54.464Z,96418.44
2022-11-28T23:41:21.438Z,96416.28
2022-11-28T23:43:47.969Z,96420.22
2022-11-28T23:46:15.729Z,96415.44
2022-11-28T23:48:45.087Z,96417.25
2022-11-28T23:51:13.646Z,96410.66
2022-11-28T23:53:41.816Z,96411.47
2022-11-28T23:56:20.197Z,96408.34
2022-11-28T23:58:46.798Z,96404.69
